Time;durP1;ratioP1;P1;durP2;ratioP2;P2;SDS_P1;SDS_P2;PMS_P1;PMS_P2;Temp;Humidity;BMP_temperature;BMP_pressure;BME280_temperature;BME280_humidity;BME280_pressure;Samples;Min_cycle;Max_cycle;Signal;HPM_P1;HPM_P2
2021/08/18 00:00:14;;;;;;;2.25;1.30;;;;;;;14.80;81.78;99834.63;4994607;28;20117;-71
2021/08/18 00:02:40;;;;;;;2.88;1.35;;;;;;;14.72;82.24;99835.16;4994448;28;20049;-71
2021/08/18 00:05:09;;;;;;;4.63;1.42;;;;;;;14.67;82.46;99827.81;4993641;28;20395;-71
2021/08/18 00:07:34;;;;;;;3.13;1.30;;;;;;;14.61;82.44;99826.97;4994151;28;20046;-71
2021/08/18 00:10:00;;;;;;;3.50;1.65;;;;;;;14.66;82.31;99828.06;4994161;28;20077;-71
2021/08/18 00:12:26;;;;;;;2.90;1.27;;;;;;;14.61;82.71;99824.25;4994197;28;20081;-71
2021/08/18 00:14:52;;;;;;;4.15;1.60;;;;;;;14.59;82.28;99818.28;4994398;28;20480;-71
2021/08/18 00:17:19;;;;;;;2.75;1.48;;;;;;;14.60;82.26;99824.53;4993853;28;20037;-71
2021/08/18 00:19:44;;;;;;;1.70;1.30;;;;;;;14.61;82.39;99818.84;4993814;28;20084;-71
2021/08/18 00:22:10;;;;;;;2.55;1.60;;;;;;;14.53;82.54;99810.44;4993979;28;20070;-71
2021/08/18 00:24:36;;;;;;;3.10;1.20;;;;;;;14.59;82.84;99818.28;4993912;28;20172;-71
2021/08/18 00:27:01;;;;;;;4.40;1.75;;;;;;;14.56;82.59;99810.69;4994181;28;20480;-71
2021/08/18 00:29:27;;;;;;;3.35;1.45;;;;;;;14.51;82.44;99815.31;4993847;28;20038;-71
2021/08/18 00:31:52;;;;;;;3.72;1.50;;;;;;;14.52;82.32;99811.50;4994048;28;20041;-70
2021/08/18 00:34:18;;;;;;;4.15;1.38;;;;;;;14.52;82.60;99814.22;4994913;28;20115;-71
2021/08/18 00:36:43;;;;;;;2.45;1.40;;;;;;;14.55;82.16;99811.78;4976580;28;20118;-71
2021/08/18 00:39:09;;;;;;;2.13;1.10;;;;;;;14.58;82.15;99808.53;4993945;28;20061;-71
2021/08/18 00:41:35;;;;;;;2.53;1.40;;;;;;;14.60;82.28;99800.16;4993697;28;20127;-71
2021/08/18 00:44:00;;;;;;;5.28;1.48;;;;;;;14.59;82.41;99812.88;4976195;28;20066;-71
2021/08/18 00:46:26;;;;;;;2.78;1.30;;;;;;;14.51;82.67;99804.47;4994158;28;20030;-71
2021/08/18 00:48:51;;;;;;;3.75;1.50;;;;;;;14.55;82.06;99802.84;4993442;28;20213;-71
2021/08/18 00:51:17;;;;;;;3.80;1.63;;;;;;;14.57;82.43;99804.19;4993527;28;20035;-71
2021/08/18 00:53:42;;;;;;;1.73;1.20;;;;;;;14.57;82.30;99803.38;4993426;28;20039;-71
2021/08/18 00:56:10;;;;;;;2.35;1.40;;;;;;;14.57;82.74;99795.25;4993812;28;20369;-71
2021/08/18 00:58:36;;;;;;;3.60;1.25;;;;;;;14.52;82.79;99787.13;4993569;28;20038;-71
2021/08/18 01:01:02;;;;;;;3.80;1.20;;;;;;;14.58;82.92;99796.88;4993405;28;20507;-71
2021/08/18 01:03:29;;;;;;;2.63;1.10;;;;;;;14.53;82.63;99792.25;4993648;28;20491;-71
2021/08/18 01:05:55;;;;;;;2.88;1.40;;;;;;;14.54;82.45;99782.25;4993871;28;20125;-71
2021/08/18 01:08:21;;;;;;;1.75;1.65;;;;;;;14.56;82.42;99789.00;4973115;28;20077;-71
2021/08/18 01:10:47;;;;;;;3.28;1.25;;;;;;;14.47;82.63;99791.44;4973072;28;20031;-71
2021/08/18 01:13:12;;;;;;;2.28;1.33;;;;;;;14.47;82.12;99779.78;4974065;28;20137;-71
2021/08/18 01:15:38;;;;;;;3.00;1.50;;;;;;;14.46;82.23;99781.69;4973446;28;20502;-71
2021/08/18 01:18:06;;;;;;;4.10;1.70;;;;;;;14.42;82.23;99774.34;4976493;28;20039;-71
2021/08/18 01:20:35;;;;;;;3.25;1.52;;;;;;;14.45;82.41;99771.09;4976532;28;20070;-71
2021/08/18 01:23:03;;;;;;;2.63;1.30;;;;;;;14.38;82.73;99770.53;4976311;28;20094;-71
2021/08/18 01:25:29;;;;;;;3.42;1.63;;;;;;;14.38;82.96;99763.25;4976413;28;20129;-71
2021/08/18 01:27:57;;;;;;;2.10;1.10;;;;;;;14.40;82.58;99766.50;4976460;28;20119;-71
2021/08/18 01:30:25;;;;;;;2.20;1.20;;;;;;;14.35;82.42;99753.75;4975013;28;20385;-71
2021/08/18 01:32:57;;;;;;;2.15;1.30;;;;;;;14.32;82.63;99750.78;4976195;28;20473;-71
2021/08/18 01:35:28;;;;;;;2.95;1.42;;;;;;;14.23;83.42;99749.66;4976301;28;20428;-71
2021/08/18 01:37:55;;;;;;;2.78;1.48;;;;;;;14.16;83.69;99741.78;4976122;28;20035;-71
2021/08/18 01:40:21;;;;;;;6.20;2.17;;;;;;;14.12;83.70;99732.56;4976489;28;20117;-71
2021/08/18 01:42:48;;;;;;;4.72;1.70;;;;;;;14.14;83.34;99746.66;4976240;28;20027;-71
2021/08/18 01:45:26;;;;;;;7.22;1.92;;;;;;;14.17;83.46;99741.53;4976209;28;20090;-71
2021/08/18 01:47:52;;;;;;;5.32;1.40;;;;;;;14.16;83.74;99734.47;4976351;28;20472;-71
2021/08/18 01:50:20;;;;;;;2.55;1.90;;;;;;;14.18;83.67;99734.19;4975872;28;20046;-71
2021/08/18 01:52:49;;;;;;;3.47;1.90;;;;;;;14.10;84.29;99740.13;4976273;28;20026;-71
2021/08/18 01:55:15;;;;;;;5.55;2.10;;;;;;;14.11;84.00;99737.13;4976046;28;20031;-71
2021/08/18 01:57:41;;;;;;;3.70;1.65;;;;;;;14.18;83.67;99736.91;4976270;28;20038;-71
2021/08/18 02:00:08;;;;;;;3.10;1.60;;;;;;;14.22;83.63;99735.28;4976041;28;20070;-71
2021/08/18 02:02:35;;;;;;;2.70;1.98;;;;;;;14.19;83.72;99738.53;4975891;28;20035;-71
2021/08/18 02:05:01;;;;;;;4.22;1.92;;;;;;;14.24;83.38;99740.47;4976099;28;20031;-71
2021/08/18 02:07:28;;;;;;;5.10;1.90;;;;;;;14.24;83.64;99741.25;4951631;28;1077189;-71
2021/08/18 02:09:54;;;;;;;4.70;1.88;;;;;;;14.30;83.37;99725.84;4996715;28;20121;-71
2021/08/18 02:12:19;;;;;;;2.15;1.60;;;;;;;14.28;83.34;99731.50;4996221;28;20484;-71
2021/08/18 02:14:45;;;;;;;6.22;1.77;;;;;;;14.31;83.51;99730.97;4996314;28;20041;-71
2021/08/18 02:17:11;;;;;;;5.13;1.92;;;;;;;14.28;83.15;99736.13;4962614;28;20061;-71
2021/08/18 02:19:36;;;;;;;3.95;1.90;;;;;;;14.34;83.02;99726.94;4996450;28;20065;-71
2021/08/18 02:22:03;;;;;;;2.35;1.73;;;;;;;14.31;83.04;99722.84;4996155;28;20125;-71
2021/08/18 02:24:28;;;;;;;2.45;1.80;;;;;;;14.35;82.89;99723.94;4996110;28;20058;-71
2021/08/18 02:26:54;;;;;;;3.22;1.60;;;;;;;14.28;83.18;99720.69;4995406;28;20125;-71
2021/08/18 02:29:19;;;;;;;3.40;1.85;;;;;;;14.21;83.31;99722.81;4996134;28;20030;-71
2021/08/18 02:31:45;;;;;;;2.50;1.70;;;;;;;14.20;82.94;99730.16;4996165;28;20041;-71
2021/08/18 02:34:12;;;;;;;3.75;1.92;;;;;;;14.16;83.11;99722.81;4996534;28;20035;-71
2021/08/18 02:36:39;;;;;;;5.40;2.22;;;;;;;14.25;83.17;99720.41;4995744;28;20034;-71
2021/08/18 02:39:05;;;;;;;3.58;1.95;;;;;;;14.24;82.80;99716.88;4995824;28;20034;-71
2021/08/18 02:41:32;;;;;;;4.88;1.85;;;;;;;14.28;82.74;99720.69;4995526;28;20452;-71
2021/08/18 02:43:58;;;;;;;4.88;1.90;;;;;;;14.28;82.76;99709.03;4996127;28;20062;-71
2021/08/18 02:46:24;;;;;;;6.65;2.20;;;;;;;14.26;82.94;99713.91;4995737;28;20039;-71
2021/08/18 02:48:49;;;;;;;3.17;2.10;;;;;;;14.25;82.82;99712.28;4995458;28;20041;-71
2021/08/18 02:51:15;;;;;;;4.50;2.30;;;;;;;14.23;83.07;99717.97;4995700;28;20030;-71
2021/08/18 02:53:41;;;;;;;3.70;2.00;;;;;;;14.28;82.72;99711.75;4995905;28;20034;-71
2021/08/18 02:56:06;;;;;;;4.93;1.92;;;;;;;14.31;82.31;99716.63;4996010;28;20070;-71
2021/08/18 02:58:32;;;;;;;4.35;2.17;;;;;;;14.32;82.09;99704.72;4995720;28;20038;-70
2021/08/18 03:00:57;;;;;;;3.25;1.75;;;;;;;14.25;82.41;99702.25;4995585;28;20042;-71
2021/08/18 03:03:23;;;;;;;4.72;2.03;;;;;;;14.28;82.65;99703.63;4995669;28;20154;-71
2021/08/18 03:05:48;;;;;;;3.55;1.77;;;;;;;14.29;82.79;99700.63;4995558;28;20084;-71
2021/08/18 03:08:14;;;;;;;3.45;1.65;;;;;;;14.26;82.89;99706.59;4995184;28;20514;-71
2021/08/18 03:10:40;;;;;;;3.20;1.50;;;;;;;14.27;83.04;99707.41;4995142;28;20085;-71
2021/08/18 03:13:06;;;;;;;3.60;1.60;;;;;;;14.29;82.97;99699.84;4995564;28;20100;-71
2021/08/18 03:15:31;;;;;;;4.70;1.67;;;;;;;14.25;83.07;99698.75;4995518;28;20041;-71
2021/08/18 03:17:57;;;;;;;3.15;1.48;;;;;;;14.21;83.45;99703.88;4995299;28;20037;-71
2021/08/18 03:20:23;;;;;;;3.55;1.55;;;;;;;14.19;83.62;99696.03;4995491;28;20563;-71
2021/08/18 03:22:48;;;;;;;3.38;1.42;;;;;;;14.23;83.80;99695.50;4995043;28;20422;-71
2021/08/18 03:25:14;;;;;;;3.47;1.42;;;;;;;14.27;83.52;99697.38;4995457;28;20034;-70
2021/08/18 03:27:40;;;;;;;3.00;1.30;;;;;;;14.17;83.68;99694.66;4995130;28;20045;-71
2021/08/18 03:30:08;;;;;;;5.45;1.33;;;;;;;14.16;84.01;99695.72;4995331;28;20042;-72
2021/08/18 03:32:34;;;;;;;1.80;1.23;;;;;;;14.06;84.42;99693.78;4995309;28;20109;-71
2021/08/18 03:35:00;;;;;;;4.80;1.50;;;;;;;14.08;84.07;99702.47;4994699;28;20035;-71
2021/08/18 03:37:26;;;;;;;2.28;1.35;;;;;;;14.02;84.51;99695.41;4994904;28;20039;-72
2021/08/18 03:39:52;;;;;;;3.38;1.67;;;;;;;14.03;84.40;99700.56;4993621;28;20053;-71
2021/08/18 03:42:18;;;;;;;3.25;1.48;;;;;;;14.05;83.67;99698.41;4995064;28;20399;-71
2021/08/18 03:44:43;;;;;;;3.03;1.60;;;;;;;14.07;83.35;99697.34;4993333;28;20061;-71
2021/08/18 03:47:09;;;;;;;1.92;1.60;;;;;;;14.16;82.45;99688.44;4994922;28;20053;-71
2021/08/18 03:49:34;;;;;;;3.22;1.88;;;;;;;14.19;82.53;99692.47;4994792;28;20034;-71
2021/08/18 03:52:00;;;;;;;2.88;1.88;;;;;;;14.18;82.23;99693.56;4994718;28;20052;-71
2021/08/18 03:54:25;;;;;;;3.97;1.95;;;;;;;14.23;81.98;99693.56;4994454;28;20061;-70
2021/08/18 03:56:50;;;;;;;9.57;2.00;;;;;;;14.23;82.09;99680.03;4993609;28;20027;-70
2021/08/18 03:59:16;;;;;;;2.85;1.75;;;;;;;14.27;81.75;99689.25;4994124;28;20475;-71
2021/08/18 04:01:42;;;;;;;4.65;1.70;;;;;;;14.29;81.89;99689.78;4994337;28;20040;-71
2021/08/18 04:04:07;;;;;;;3.30;1.98;;;;;;;14.28;82.10;99690.88;4995185;28;20030;-71
2021/08/18 04:06:33;;;;;;;4.03;1.83;;;;;;;14.30;81.91;99685.19;4994347;28;20476;-71
2021/08/18 04:08:59;;;;;;;4.35;1.80;;;;;;;14.27;82.12;99683.03;4994191;28;20358;-71
2021/08/18 04:12:17;;;;;;;3.42;1.67;;;;;;;14.40;81.69;99685.22;4994485;28;20042;-71
2021/08/18 04:14:42;;;;;;;2.50;1.60;;;;;;;14.32;82.17;99677.63;4994138;28;20070;-71
2021/08/18 04:17:08;;;;;;;6.30;1.90;;;;;;;14.34;82.34;99681.66;4994451;28;20030;-71
2021/08/18 04:19:36;;;;;;;2.15;1.52;;;;;;;14.33;82.95;99674.63;4994220;28;20132;-71
2021/08/18 04:22:01;;;;;;;5.35;1.90;;;;;;;14.32;83.34;99674.91;4994303;28;20096;-71
2021/08/18 04:24:26;;;;;;;5.38;1.73;;;;;;;14.29;83.59;99681.66;4994558;28;20057;-71
2021/08/18 04:26:52;;;;;;;8.07;2.13;;;;;;;14.25;83.90;99687.91;4994020;28;20133;-71
2021/08/18 04:29:18;;;;;;;12.00;2.38;;;;;;;14.14;85.42;99692.47;4976445;28;20498;-71
2021/08/18 04:31:44;;;;;;;4.22;1.50;;;;;;;14.15;85.32;99683.28;4993848;28;20124;-71
2021/08/18 04:34:09;;;;;;;6.20;1.52;;;;;;;14.08;85.83;99682.72;4994203;28;20038;-71
2021/08/18 04:36:35;;;;;;;2.55;1.10;;;;;;;14.09;85.97;99687.84;4994194;28;20105;-71
2021/08/18 04:39:00;;;;;;;2.97;0.88;;;;;;;14.09;85.49;99689.75;4993820;28;20542;-71
2021/08/18 04:41:26;;;;;;;2.28;0.90;;;;;;;14.06;85.32;99688.38;4994134;28;20034;-70
2021/08/18 04:43:51;;;;;;;1.30;1.08;;;;;;;14.01;85.94;99675.66;4994022;28;20038;-70
2021/08/18 04:46:17;;;;;;;3.70;0.60;;;;;;;13.99;85.56;99677.81;4993939;28;20034;-71
2021/08/18 04:48:43;;;;;;;4.47;0.60;;;;;;;13.99;86.05;99675.13;4993986;28;20120;-71
2021/08/18 04:51:08;;;;;;;0.85;0.80;;;;;;;13.97;87.13;99671.84;4993611;28;20046;-71
2021/08/18 04:53:34;;;;;;;2.15;0.70;;;;;;;13.87;87.42;99664.50;4993700;28;20044;-71
2021/08/18 04:56:00;;;;;;;1.08;0.65;;;;;;;13.81;87.63;99660.16;4993900;28;20396;-71
2021/08/18 04:58:25;;;;;;;2.50;0.85;;;;;;;13.81;87.73;99664.78;4993555;28;20507;-71
2021/08/18 05:00:50;;;;;;;4.03;1.00;;;;;;;13.85;87.35;99663.16;4993424;28;20174;-71
2021/08/18 05:03:16;;;;;;;1.80;0.85;;;;;;;13.85;87.34;99647.72;4993547;28;20372;-71
2021/08/18 05:05:41;;;;;;;3.90;1.13;;;;;;;13.83;88.09;99643.66;4993861;28;20508;-71
2021/08/18 05:08:07;;;;;;;2.85;0.90;;;;;;;13.85;88.17;99646.91;4993515;28;20054;-71
2021/08/18 05:10:37;;;;;;;2.08;0.98;;;;;;;13.84;88.50;99637.16;4993421;28;20531;-71
2021/08/18 05:13:03;;;;;;;3.20;1.23;;;;;;;13.87;88.52;99639.34;4993566;28;20562;-71
2021/08/18 05:15:29;;;;;;;6.40;1.30;;;;;;;13.89;88.46;99642.59;4993745;28;20062;-71
2021/08/18 05:17:54;;;;;;;3.58;1.33;;;;;;;13.91;87.65;99640.44;4993325;28;20177;-71
2021/08/18 05:20:20;;;;;;;3.15;1.00;;;;;;;13.91;87.51;99635.81;4993625;28;20035;-71
2021/08/18 05:22:48;;;;;;;3.83;1.10;;;;;;;13.94;87.71;99639.91;4993715;28;20373;-71
2021/08/18 05:25:15;;;;;;;5.25;1.58;;;;;;;13.99;86.58;99639.09;4993736;28;20043;-71
2021/08/18 05:27:42;;;;;;;2.40;1.15;;;;;;;14.02;86.57;99636.66;4993333;28;20097;-71
2021/08/18 05:30:09;;;;;;;1.83;1.02;;;;;;;14.07;85.94;99637.75;4993769;28;20038;-71
2021/08/18 05:32:36;;;;;;;5.80;1.00;;;;;;;14.16;83.90;99631.56;4993650;28;20038;-71
2021/08/18 05:35:09;;;;;;;1.77;1.00;;;;;;;14.17;84.14;99645.91;4993604;28;20070;-71
2021/08/18 05:37:35;;;;;;;5.82;1.10;;;;;;;14.16;84.20;99646.97;4993209;28;20040;-72
2021/08/18 05:40:00;;;;;;;3.65;1.10;;;;;;;14.16;83.79;99639.69;4993117;28;20047;-71
2021/08/18 05:42:26;;;;;;;3.38;1.30;;;;;;;14.09;84.25;99647.22;4993190;28;20062;-71
2021/08/18 05:44:52;;;;;;;2.28;1.10;;;;;;;14.06;84.15;99636.94;4993369;28;20027;-71
2021/08/18 05:47:18;;;;;;;2.95;1.05;;;;;;;14.11;84.18;99630.72;4993046;28;20038;-71
2021/08/18 05:49:43;;;;;;;2.55;1.00;;;;;;;14.13;84.20;99636.69;4993163;28;20042;-71
2021/08/18 05:52:09;;;;;;;2.03;1.20;;;;;;;14.17;83.83;99635.88;4993054;28;20117;-71
2021/08/18 05:54:36;;;;;;;3.33;1.20;;;;;;;14.23;83.34;99633.97;4993355;28;20046;-71
2021/08/18 05:57:03;;;;;;;3.38;1.08;;;;;;;14.23;82.78;99630.47;4994162;28;20034;-71
2021/08/18 05:59:28;;;;;;;2.65;1.27;;;;;;;14.27;82.31;99635.06;4993159;28;20350;-71
2021/08/18 06:01:54;;;;;;;2.63;1.17;;;;;;;14.20;82.46;99632.66;4994234;28;20046;-71
2021/08/18 06:04:20;;;;;;;2.65;1.08;;;;;;;14.27;81.68;99628.84;4979077;28;20049;-71
2021/08/18 06:06:45;;;;;;;31.02;2.30;;;;;;;14.25;81.05;99622.91;4996392;28;20125;-71
2021/08/18 06:09:11;;;;;;;3.00;1.20;;;;;;;14.24;81.27;99627.47;4996586;28;20496;-71
2021/08/18 06:11:41;;;;;;;2.08;0.85;;;;;;;14.16;81.38;99625.31;4996727;28;20049;-71
2021/08/18 06:14:07;;;;;;;4.22;0.90;;;;;;;14.27;80.71;99624.22;4996564;28;20434;-71
2021/08/18 06:16:33;;;;;;;3.00;1.00;;;;;;;14.24;80.57;99627.47;4996711;28;20038;-71
2021/08/18 06:18:59;;;;;;;1.42;0.90;;;;;;;14.24;80.77;99624.78;4996232;28;20052;-71
2021/08/18 06:21:25;;;;;;;1.75;0.80;;;;;;;14.20;81.02;99621.81;4996529;28;20042;-71
2021/08/18 06:23:54;;;;;;;4.53;0.80;;;;;;;14.13;81.52;99609.59;4996485;28;20046;-71
2021/08/18 06:26:19;;;;;;;2.92;0.90;;;;;;;14.11;82.19;99628.81;4996513;28;20497;-71
2021/08/18 06:28:45;;;;;;;2.22;0.75;;;;;;;14.03;82.05;99629.34;4996445;28;20121;-71
2021/08/18 06:31:10;;;;;;;2.45;0.85;;;;;;;13.99;82.67;99631.78;4996411;28;20437;-71
2021/08/18 06:33:36;;;;;;;2.78;0.70;;;;;;;14.00;82.74;99630.72;4996435;28;20038;-71
2021/08/18 06:36:02;;;;;;;1.75;0.60;;;;;;;13.99;82.64;99626.38;4996160;28;20419;-71
2021/08/18 06:38:29;;;;;;;2.22;0.50;;;;;;;14.04;82.61;99623.66;4995965;28;20037;-71
2021/08/18 06:40:54;;;;;;;1.42;0.70;;;;;;;14.11;82.17;99617.19;4995881;28;20034;-71
2021/08/18 06:43:20;;;;;;;4.10;0.90;;;;;;;14.13;82.02;99620.44;4996128;28;20495;-71
2021/08/18 06:45:46;;;;;;;2.38;0.60;;;;;;;14.19;81.94;99613.94;4996597;28;20429;-71
2021/08/18 06:48:11;;;;;;;2.72;0.80;;;;;;;14.32;81.17;99618.81;4996015;28;20484;-71
2021/08/18 06:50:37;;;;;;;0.93;0.40;;;;;;;14.40;81.00;99624.78;4996129;28;20038;-71
2021/08/18 06:53:02;;;;;;;1.95;0.50;;;;;;;14.46;81.07;99634.53;4995672;28;20535;-71
2021/08/18 06:55:29;;;;;;;0.88;0.45;;;;;;;14.45;80.82;99630.19;4995612;28;20046;-70
2021/08/18 06:57:56;;;;;;;1.23;0.50;;;;;;;14.51;80.35;99631.03;4978168;28;20034;-71
2021/08/18 07:00:21;;;;;;;4.03;0.60;;;;;;;14.52;80.67;99628.03;4995555;28;20034;-71
2021/08/18 07:02:51;;;;;;;1.02;0.50;;;;;;;14.70;79.75;99637.53;4995880;28;20619;-71
2021/08/18 07:05:18;;;;;;;2.35;0.85;;;;;;;14.56;80.16;99629.09;4995356;28;20483;-71
2021/08/18 07:07:44;;;;;;;2.03;1.00;;;;;;;14.49;81.21;99628.56;4995356;28;20488;-70
2021/08/18 07:10:11;;;;;;;3.80;0.60;;;;;;;14.55;80.62;99626.69;4977881;28;20038;-71
2021/08/18 07:12:36;;;;;;;2.30;0.60;;;;;;;14.50;80.28;99622.06;4995215;28;20050;-71
2021/08/18 07:15:04;;;;;;;4.88;0.50;;;;;;;14.53;80.67;99624.22;4994418;28;20380;-70
2021/08/18 07:17:30;;;;;;;3.58;0.60;;;;;;;14.56;80.02;99625.59;4995500;28;20089;-70
2021/08/18 07:19:55;;;;;;;0.30;0.30;;;;;;;14.58;79.42;99623.44;4995419;28;20034;-70
2021/08/18 07:22:21;;;;;;;2.75;0.75;;;;;;;14.38;80.68;99621.53;4995389;28;20503;-71
2021/08/18 07:24:47;;;;;;;2.65;0.55;;;;;;;14.45;80.98;99631.03;4995772;28;20137;-70
2021/08/18 07:31:19;;;;;;;2.80;0.80;;;;;;;14.61;80.01;99628.31;4995144;28;20050;-70
2021/08/18 07:33:45;;;;;;;2.22;0.52;;;;;;;14.71;79.56;99624.78;4994931;28;20119;-70
2021/08/18 07:36:11;;;;;;;4.00;0.80;;;;;;;14.70;79.79;99620.44;4995091;28;20030;-71
2021/08/18 07:38:36;;;;;;;0.70;0.50;;;;;;;14.93;78.29;99624.50;4995432;28;20074;-70
2021/08/18 07:41:02;;;;;;;2.88;0.82;;;;;;;15.01;77.31;99625.81;4995011;28;20046;-70
2021/08/18 07:47:20;;;;;;;2.58;0.90;;;;;;;14.73;79.13;99633.47;4995068;28;20122;-70
2021/08/18 07:49:46;;;;;;;2.65;1.05;;;;;;;14.67;79.66;99627.22;4994802;28;20463;-70
2021/08/18 07:52:11;;;;;;;3.33;1.05;;;;;;;14.55;79.49;99621.25;4994783;28;20046;-70
2021/08/18 07:54:37;;;;;;;3.67;1.10;;;;;;;14.68;78.89;99628.84;4994558;28;20030;-71
2021/08/18 07:57:03;;;;;;;2.85;1.10;;;;;;;14.67;79.56;99624.50;4994511;28;20080;-70
2021/08/18 07:59:29;;;;;;;1.75;0.90;;;;;;;14.62;79.38;99625.31;4994398;28;20062;-72
2021/08/18 08:01:54;;;;;;;2.20;0.73;;;;;;;14.79;78.92;99629.66;4994735;28;20069;-71
2021/08/18 08:04:20;;;;;;;1.73;0.75;;;;;;;14.76;78.77;99630.19;4994661;28;20066;-72
2021/08/18 08:06:46;;;;;;;1.55;0.80;;;;;;;14.72;79.47;99629.94;4994130;28;20070;-72
2021/08/18 08:09:11;;;;;;;4.07;1.23;;;;;;;14.75;78.45;99615.84;4994259;28;20125;-72
2021/08/18 08:11:37;;;;;;;3.90;0.80;;;;;;;14.83;78.57;99610.97;4994294;28;20042;-72
2021/08/18 08:14:06;;;;;;;1.05;0.60;;;;;;;14.85;78.07;99615.00;4994210;28;20443;-72
2021/08/18 08:16:31;;;;;;;2.97;0.80;;;;;;;14.96;78.22;99621.22;4993573;28;20121;-72
2021/08/18 08:18:57;;;;;;;2.17;0.60;;;;;;;15.03;77.93;99620.97;4994114;28;20038;-72
2021/08/18 08:21:25;;;;;;;2.10;0.60;;;;;;;15.01;77.69;99629.34;4994367;28;20119;-72
2021/08/18 08:23:51;;;;;;;1.92;0.50;;;;;;;15.18;77.39;99633.66;4994002;28;20034;-72
2021/08/18 08:26:17;;;;;;;3.45;0.70;;;;;;;15.21;77.10;99627.66;4993931;28;20026;-72
2021/08/18 08:28:43;;;;;;;2.13;0.50;;;;;;;15.34;75.65;99631.72;4995089;28;20038;-72
2021/08/18 08:31:08;;;;;;;4.15;0.60;;;;;;;15.29;75.34;99618.97;4994072;28;20357;-72
2021/08/18 08:33:35;;;;;;;1.23;0.47;;;;;;;15.32;74.92;99625.75;4993927;28;20121;-72
2021/08/18 08:36:00;;;;;;;1.35;0.50;;;;;;;15.28;75.06;99622.75;4994126;28;20045;-72
2021/08/18 08:38:26;;;;;;;3.78;0.68;;;;;;;15.40;74.73;99617.03;4993683;28;20043;-72
2021/08/18 08:40:51;;;;;;;1.10;0.32;;;;;;;15.72;73.51;99610.38;4994197;28;20044;-72
2021/08/18 08:43:19;;;;;;;1.85;0.30;;;;;;;15.83;73.26;99613.03;4993712;28;20040;-72
2021/08/18 08:45:48;;;;;;;0.85;0.30;;;;;;;15.90;73.23;99611.66;4993735;28;20441;-72
2021/08/18 08:48:18;;;;;;;1.17;0.65;;;;;;;15.84;73.24;99618.16;4993784;28;20100;-72
2021/08/18 08:50:46;;;;;;;1.60;0.40;;;;;;;15.81;73.98;99611.41;4993773;28;20034;-72
2021/08/18 08:53:12;;;;;;;0.95;0.32;;;;;;;15.76;73.53;99621.47;4994549;28;20460;-72
2021/08/18 08:55:39;;;;;;;1.10;0.50;;;;;;;15.95;73.09;99622.50;4993626;28;20026;-72
2021/08/18 08:58:05;;;;;;;1.95;0.80;;;;;;;15.84;73.43;99622.78;4993756;28;20423;-72
2021/08/18 09:00:30;;;;;;;1.48;0.50;;;;;;;15.66;74.75;99622.34;4994210;28;20461;-69
2021/08/18 09:03:12;;;;;;;1.02;0.40;;;;;;;15.46;74.70;99615.91;4993592;28;20030;-69
2021/08/18 09:05:39;;;;;;;1.95;0.60;;;;;;;15.36;75.56;99624.91;4993528;28;20038;-69
2021/08/18 09:08:16;;;;;;;1.85;0.60;;;;;;;15.25;76.11;99615.19;4993879;28;20050;-70
2021/08/18 09:11:12;;;;;;;2.78;0.57;;;;;;;15.31;76.44;99629.56;4993402;28;20449;-70
2021/08/18 09:13:52;;;;;;;2.13;0.55;;;;;;;15.63;75.19;99620.97;4993571;28;20472;-69
2021/08/18 09:16:29;;;;;;;2.72;0.63;;;;;;;15.52;74.83;99613.97;4993650;28;20187;-69
2021/08/18 09:18:55;;;;;;;2.00;0.60;;;;;;;15.65;74.93;99621.50;4993491;28;20121;-70
2021/08/18 09:21:35;;;;;;;2.15;0.50;;;;;;;15.85;74.17;99617.06;4993364;28;20118;-72
2021/08/18 09:24:11;;;;;;;1.67;0.60;;;;;;;15.97;73.91;99621.41;4993276;28;20392;-71
2021/08/18 09:26:48;;;;;;;0.88;0.45;;;;;;;15.75;74.63;99625.25;4993364;28;20392;-70
2021/08/18 09:29:32;;;;;;;2.42;0.57;;;;;;;15.73;74.61;99613.88;4993322;28;20125;-70
2021/08/18 09:32:24;;;;;;;3.22;0.77;;;;;;;15.86;74.10;99607.81;4993489;28;20043;-71
2021/08/18 09:35:12;;;;;;;2.53;0.68;;;;;;;15.79;74.73;99610.88;4993472;28;20065;-71
2021/08/18 09:37:41;;;;;;;1.85;0.60;;;;;;;15.91;73.77;99604.31;4995589;28;20049;-71
2021/08/18 09:40:22;;;;;;;0.85;0.40;;;;;;;15.92;73.95;99609.47;4996626;28;20077;-71
2021/08/18 09:42:49;;;;;;;1.38;0.63;;;;;;;16.08;73.98;99612.88;4997271;28;20121;-72
2021/08/18 09:45:18;;;;;;;1.08;0.65;;;;;;;16.08;74.18;99610.16;4997213;28;20137;-71
2021/08/18 09:48:01;;;;;;;2.53;0.60;;;;;;;16.15;74.10;99599.00;4997144;28;20041;-71
2021/08/18 09:50:30;;;;;;;0.82;0.60;;;;;;;16.17;73.84;99596.81;4996949;28;20042;-71
2021/08/18 09:53:05;;;;;;;1.65;0.52;;;;;;;16.22;74.11;99596.75;4996813;28;20051;-71
2021/08/18 09:55:31;;;;;;;3.38;0.60;;;;;;;16.45;73.51;99597.13;4979362;28;20053;-71
2021/08/18 09:57:56;;;;;;;0.98;0.40;;;;;;;16.55;72.65;99593.47;4996502;28;20443;-71
2021/08/18 10:00:21;;;;;;;8.95;0.50;;;;;;;16.48;72.38;99591.09;4996703;28;20062;-71
2021/08/18 10:02:48;;;;;;;0.75;0.30;;;;;;;16.67;72.57;99602.06;4996680;28;20034;-71
2021/08/18 10:05:14;;;;;;;0.88;0.30;;;;;;;16.72;72.26;99594.94;4979037;28;20392;-71
2021/08/18 10:07:41;;;;;;;0.88;0.30;;;;;;;17.06;71.45;99599.53;4996457;28;20055;-72
2021/08/18 10:10:07;;;;;;;2.13;0.30;;;;;;;16.96;71.03;99587.66;4996572;28;20108;-71
2021/08/18 10:12:34;;;;;;;1.85;0.50;;;;;;;16.90;71.60;99593.41;4996542;28;20039;-71
2021/08/18 10:15:01;;;;;;;3.78;0.50;;;;;;;16.78;71.31;99589.19;4978887;28;20495;-71
2021/08/18 10:17:29;;;;;;;1.65;0.40;;;;;;;17.09;71.11;99593.53;4996288;28;20030;-71
2021/08/18 10:19:56;;;;;;;0.50;0.30;;;;;;;17.10;71.13;99581.53;4996597;28;20038;-71
2021/08/18 10:22:28;;;;;;;0.52;0.30;;;;;;;17.42;69.69;99585.50;4996310;28;20042;-71
2021/08/18 10:24:55;;;;;;;1.95;0.30;;;;;;;17.12;70.20;99587.50;4996482;28;20046;-71
2021/08/18 10:27:46;;;;;;;0.45;0.28;;;;;;;16.75;72.39;99591.66;4996984;28;20109;-71
2021/08/18 10:30:22;;;;;;;0.35;0.30;;;;;;;16.79;72.12;99595.44;4997080;28;20069;-71
2021/08/18 10:32:48;;;;;;;1.85;0.20;;;;;;;16.89;72.20;99589.91;4996765;28;20053;-71
2021/08/18 10:35:35;;;;;;;2.10;0.30;;;;;;;16.64;72.88;99580.09;4996359;28;20129;-71
2021/08/18 10:38:26;;;;;;;2.25;0.22;;;;;;;16.79;72.59;99584.56;4995737;28;20483;-71
2021/08/18 10:40:53;;;;;;;0.63;0.20;;;;;;;16.87;71.92;99581.22;4996324;28;20046;-71
2021/08/18 10:43:50;;;;;;;0.60;0.30;;;;;;;16.80;72.19;99583.47;4995718;28;20037;-71
2021/08/18 10:46:17;;;;;;;0.60;0.30;;;;;;;17.00;72.14;99587.91;4981047;28;20058;-71
2021/08/18 10:48:53;;;;;;;0.40;0.40;;;;;;;17.12;72.19;99573.91;4995574;28;20045;-71
2021/08/18 10:51:40;;;;;;;0.95;0.30;;;;;;;17.01;71.56;99578.63;4978410;28;20036;-71
2021/08/18 10:54:27;;;;;;;0.95;0.30;;;;;;;16.99;71.92;99564.50;4996285;28;20118;-71
2021/08/18 10:56:57;;;;;;;1.00;0.38;;;;;;;17.05;72.38;99568.00;4995534;28;20559;-71
2021/08/18 11:03:26;;;;;;;0.63;0.40;;;;;;;17.36;71.77;99576.56;4995897;28;20050;-71
2021/08/18 11:05:55;;;;;;;0.50;0.40;;;;;;;17.14;71.54;99562.69;4995654;28;20041;-71
2021/08/18 11:08:40;;;;;;;0.98;0.40;;;;;;;17.31;72.24;99564.94;4995186;28;20055;-71
2021/08/18 11:11:06;;;;;;;0.47;0.40;;;;;;;17.66;69.94;99571.00;4995728;28;20038;-71
2021/08/18 11:17:25;;;;;;;0.63;0.40;;;;;;;17.82;69.99;99566.16;4995683;28;20391;-71
2021/08/18 11:19:55;;;;;;;0.65;0.47;;;;;;;17.84;69.91;99572.13;4977738;28;20403;-71
2021/08/18 11:22:20;;;;;;;0.50;0.50;;;;;;;17.74;70.21;99564.91;4995379;28;20045;-71
2021/08/18 11:24:46;;;;;;;0.82;0.30;;;;;;;17.56;70.61;99585.56;4995146;28;20031;-71
2021/08/18 11:27:16;;;;;;;1.65;0.40;;;;;;;17.46;70.21;99572.09;4995001;28;20073;-71
2021/08/18 11:33:41;;;;;;;1.83;0.60;;;;;;;17.58;71.35;99577.91;4995388;28;20555;-71
2021/08/18 11:36:15;;;;;;;0.60;0.40;;;;;;;17.69;70.48;99581.31;4995109;28;20042;-71
2021/08/18 11:38:41;;;;;;;0.75;0.60;;;;;;;17.56;70.33;99556.44;4995085;28;20030;-71
2021/08/18 11:41:06;;;;;;;5.57;0.70;;;;;;;17.49;71.00;99564.16;4994809;28;20041;-71
2021/08/18 11:43:40;;;;;;;1.13;0.70;;;;;;;17.47;71.37;99560.94;4994773;28;20068;-70
2021/08/18 11:46:07;;;;;;;1.17;0.70;;;;;;;17.52;71.88;99571.75;4994830;28;20510;-71
2021/08/18 11:48:34;;;;;;;2.25;1.05;;;;;;;17.55;72.21;99560.28;4994512;28;20439;-71
2021/08/18 11:51:00;;;;;;;2.33;1.10;;;;;;;17.55;71.90;99568.44;4995469;28;20058;-71
2021/08/18 11:53:26;;;;;;;1.50;1.15;;;;;;;17.51;71.41;99552.97;4994753;28;20118;-71
2021/08/18 11:56:00;;;;;;;1.85;1.58;;;;;;;17.61;71.11;99557.47;4994470;28;20080;-70